Time;durP1;ratioP1;P1;durP2;ratioP2;P2;SDS_P1;SDS_P2;PMS_P1;PMS_P2;Temp;Humidity;BMP_temperature;BMP_pressure;BME280_temperature;BME280_humidity;BME280_pressure;Samples;Min_cycle;Max_cycle;Signal;HPM_P1;HPM_P2
2021/11/22 00:00:47;;;;;;;;;;;;;;;;;;;;;
2021/11/22 00:04:07;;;;;;;;;;;;;;;;;;;;;
2021/11/22 00:07:20;;;;;;;;;;;;;;;;;;;;;
2021/11/22 00:10:31;;;;;;;4.20;2.10;;;;;;;2.82;100.00;101026.06;102493;1316;74893;-78
2021/11/22 00:13:59;;;;;;;8.80;3.40;;;;;;;2.79;100.00;101028.36;102265;1318;70284;-79
2021/11/22 00:17:26;;;;;;;5.70;2.40;;;;;;;2.77;100.00;101029.20;102240;1318;73056;-79
2021/11/22 00:20:31;;;;;;;2.80;1.60;;;;;;;2.73;100.00;101033.73;102674;1319;62207;-79
2021/11/22 00:23:34;;;;;;;6.50;3.00;;;;;;;2.67;100.00;101034.33;102235;1318;61210;-77
2021/11/22 00:26:33;;;;;;;4.90;1.90;;;;;;;2.61;100.00;101038.59;102198;1318;74985;-77
2021/11/22 00:29:15;;;;;;;;;;;;;;;;;;;;;
2021/11/22 00:32:26;;;;;;;7.10;2.80;;;;;;;2.53;100.00;101059.84;102171;1318;73823;-77
2021/11/22 00:35:54;;;;;;;4.50;2.00;;;;;;;2.48;100.00;101065.42;102047;1319;62330;-77
2021/11/22 00:39:01;;;;;;;4.50;1.70;;;;;;;2.46;100.00;101067.83;102097;1317;62557;-77
2021/11/22 00:42:29;;;;;;;4.90;2.20;;;;;;;2.44;100.00;101070.27;102407;1319;77223;-80
2021/11/22 00:45:40;;;;;;;3.10;1.60;;;;;;;2.48;100.00;101076.96;102423;1318;72499;-79
2021/11/22 00:48:22;;;;;;;;;;;;;;;;;;;;;
2021/11/22 00:51:41;;;;;;;4.40;2.10;;;;;;;2.51;100.00;101090.52;102267;1318;61392;-79
2021/11/22 00:58:04;;;;;;;5.10;2.30;;;;;;;2.53;100.00;101098.43;102248;1321;74611;-76
2021/11/22 01:01:05;;;;;;;4.70;2.40;;;;;;;2.54;100.00;101106.20;102109;1318;71689;-78
2021/11/22 01:04:23;;;;;;;4.20;1.80;;;;;;;2.55;100.00;101110.11;102179;1318;74267;-76
2021/11/22 01:07:32;;;;;;;3.00;1.60;;;;;;;2.55;100.00;101115.20;102269;1317;63437;-79
2021/11/22 01:11:00;;;;;;;5.90;2.50;;;;;;;2.52;100.00;101116.96;102225;1317;61334;-77
2021/11/22 01:14:02;;;;;;;3.40;2.20;;;;;;;2.49;100.00;101126.66;102254;1318;75331;-77
2021/11/22 01:17:15;;;;;;;4.30;2.40;;;;;;;2.48;100.00;101130.60;102509;1316;71478;-77
2021/11/22 01:20:29;;;;;;;;;;;;;;;;;;;;;
2021/11/22 01:23:14;;;;;;;4.80;2.60;;;;;;;2.49;100.00;101138.66;102232;1318;61201;-77
2021/11/22 01:26:32;;;;;;;;;;;;;;;;;;;;;
2021/11/22 01:29:59;;;;;;;2.20;1.30;;;;;;;2.58;100.00;101152.03;102461;1319;75239;-80
2021/11/22 01:32:31;;;;;;;3.60;1.80;;;;;;;2.64;100.00;101152.22;102047;1317;72511;-78
2021/11/22 01:35:00;;;;;;;3.60;2.30;;;;;;;2.70;100.00;101160.94;102326;1316;73804;-77
2021/11/22 01:38:29;;;;;;;3.60;2.10;;;;;;;2.73;100.00;101159.60;102251;1319;61323;-77
2021/11/22 01:41:07;;;;;;;5.10;2.40;;;;;;;2.79;100.00;101165.09;102371;1318;61447;-77
2021/11/22 01:44:24;;;;;;;;;;;;;;;;;;;;;
2021/11/22 01:47:23;;;;;;;3.60;1.40;;;;;;;2.85;100.00;101162.53;102306;1319;70994;-79
2021/11/22 01:50:33;;;;;;;;;;;;;;;;;;;;;
2021/11/22 01:54:02;;;;;;;2.50;1.40;;;;;;;2.92;100.00;101169.04;102405;1315;61990;-79
2021/11/22 01:57:29;;;;;;;3.10;1.80;;;;;;;2.96;100.00;101174.69;102509;1316;61540;-79
2021/11/22 02:00:36;;;;;;;;;;;;;;;2.98;100.00;101178.05;102433;1317;76010;-79
2021/11/22 02:03:28;;;;;;;;;;;;;;;;;;;;;
2021/11/22 02:06:18;;;;;;;4.80;2.20;;;;;;;3.05;100.00;101191.17;102222;1318;73136;-77
2021/11/22 02:09:17;;;;;;;;;;;;;;;;;;;;;
2021/11/22 02:12:34;;;;;;;;;;;;;;;;;;;;;
2021/11/22 02:16:03;;;;;;;2.50;1.10;;;;;;;3.17;100.00;101203.05;102296;1318;75953;-79
2021/11/22 02:19:31;;;;;;;3.00;1.30;;;;;;;3.21;100.00;101206.41;102169;1317;71254;-78
2021/11/22 02:22:33;;;;;;;3.60;1.70;;;;;;;3.24;100.00;101215.39;102328;1317;73032;-76
2021/11/22 02:25:46;;;;;;;4.40;1.60;;;;;;;3.27;100.00;101215.06;102186;1321;61270;-79
2021/11/22 02:28:32;;;;;;;;;;;;;;;;;;;;;
2021/11/22 02:31:32;;;;;;;6.00;1.30;;;;;;;3.30;100.00;101227.79;102613;1316;76051;-80
2021/11/22 02:34:39;;;;;;;;;;;;;;;;;;;;;
2021/11/22 02:38:07;;;;;;;;;;;;;;;;;;;;;
2021/11/22 02:41:10;;;;;;;2.00;1.40;;;;;;;3.33;100.00;101236.27;102894;1316;62604;-79
2021/11/22 02:44:39;;;;;;;2.80;1.30;;;;;;;3.35;100.00;101242.46;102681;1320;61181;-80
2021/11/22 02:47:28;;;;;;;3.20;1.30;;;;;;;3.36;100.00;101246.01;102760;1321;74920;-79
2021/11/22 02:50:47;;;;;;;;;;;;;;;;;;;;;
2021/11/22 02:53:58;;;;;;;2.50;1.20;;;;;;;3.39;100.00;101263.25;102384;1316;72726;-78
2021/11/22 02:56:48;;;;;;;;;;;;;;;;;;;;;
2021/11/22 03:00:06;;;;;;;2.70;1.80;;;;;;;3.32;100.00;101273.75;102587;1317;61886;-78
2021/11/22 03:03:16;;;;;;;3.50;1.30;;;;;;;3.29;100.00;101276.95;102186;1316;77060;-76
2021/11/22 03:06:33;;;;;;;4.10;1.10;;;;;;;3.20;100.00;101281.59;102071;1317;71489;-78
2021/11/22 03:09:29;;;;;;;;;;;;;;;;;;;;;
2021/11/22 03:12:10;;;;;;;3.60;1.50;;;;;;;3.06;100.00;101284.75;102300;1317;62382;-76
2021/11/22 03:15:29;;;;;;;3.30;1.00;;;;;;;2.99;100.00;101287.35;102529;1319;61168;-77
2021/11/22 03:18:45;;;;;;;1.10;0.80;;;;;;;2.91;100.00;101291.65;102550;1316;76028;-79
2021/11/22 03:21:44;;;;;;;;;;;;;;;;;;;;;
2021/11/22 03:25:03;;;;;;;;;;;;;;;;;;;;;
2021/11/22 03:28:23;;;;;;;2.30;1.20;;;;;;;2.72;100.00;101306.80;102376;1316;61897;-80
2021/11/22 03:31:52;;;;;;;2.50;0.90;;;;;;;2.66;100.00;101313.83;102510;1317;61833;-78
2021/11/22 03:35:21;;;;;;;3.10;1.70;;;;;;;2.57;100.00;101318.63;102555;1317;76000;-80
2021/11/22 03:38:38;;;;;;;;;;;;;;;;;;;;;
2021/11/22 03:41:24;;;;;;;;;;;;;;;;;;;;;
2021/11/22 03:44:45;;;;;;;2.90;1.80;;;;;;;2.35;100.00;101328.71;102406;1316;63151;-80
2021/11/22 03:48:01;;;;;;;;;;;;;;;;;;;;;
2021/11/22 03:50:54;;;;;;;6.80;2.30;;;;;;;2.23;100.00;101335.67;102490;1316;75145;-78
2021/11/22 03:54:18;;;;;;;;;;;;;;;;;;;;;
2021/11/22 03:57:31;;;;;;;;;;;;;;;;;;;;;
2021/11/22 04:01:07;;;;;;;3.30;1.70;;;;;;;1.99;100.00;101354.55;102507;1317;61473;-79
2021/11/22 04:03:36;;;;;;;3.30;1.80;;;;;;;1.91;100.00;101358.05;102685;1321;62679;-80
2021/11/22 04:06:43;;;;;;;;;;;;;;;;;;;;;
2021/11/22 04:09:50;;;;;;;2.60;1.60;;;;;;;1.78;100.00;101367.27;102657;1315;72526;-80
2021/11/22 04:13:19;;;;;;;2.60;1.70;;;;;;;1.71;100.00;101378.39;102356;1317;73846;-77
2021/11/22 04:16:33;;;;;;;4.10;1.90;;;;;;;1.63;100.00;101386.38;102145;1316;61684;-77
2021/11/22 04:23:28;;;;;;;4.40;1.20;;;;;;;1.50;100.00;101396.84;102284;1318;76589;-79
2021/11/22 04:26:18;;;;;;;5.90;1.80;;;;;;;1.41;100.00;101408.92;102262;1319;71469;-77
2021/11/22 04:29:06;;;;;;;;;;;;;;;;;;;;;
2021/11/22 04:32:16;;;;;;;3.60;2.30;;;;;;;1.28;100.00;101419.48;102388;1324;62827;-76
2021/11/22 04:35:07;;;;;;;4.20;2.20;;;;;;;1.23;100.00;101418.42;102256;1318;61605;-77
2021/11/22 04:38:24;;;;;;;3.50;1.80;;;;;;;1.18;100.00;101423.24;102243;1319;74871;-76
2021/11/22 04:41:26;;;;;;;;;;;;;;;;;;;;;
2021/11/22 04:44:06;;;;;;;;;;;;;;;;;;;;;
2021/11/22 04:47:09;;;;;;;;;;;;;;;;;;;;;
2021/11/22 04:50:26;;;;;;;4.90;1.80;;;;;;;0.93;100.00;101434.58;102425;1319;61340;-77
2021/11/22 04:53:53;;;;;;;3.30;1.20;;;;;;;0.87;100.00;101439.63;102086;1324;76401;-79
2021/11/22 04:57:02;;;;;;;;;;;;;;;;;;;;;
2021/11/22 05:00:13;;;;;;;3.50;2.30;;;;;;;0.78;100.00;101441.88;102274;1323;72805;-77
2021/11/22 05:03:40;;;;;;;5.40;2.50;;;;;;;0.74;100.00;101448.94;102330;1318;61519;-80
2021/11/22 05:06:19;;;;;;;3.80;1.90;;;;;;;0.70;100.00;101459.59;102198;1323;62057;-77
2021/11/22 05:09:40;;;;;;;4.60;2.30;;;;;;;0.68;100.00;101459.89;102281;1320;76011;-78
2021/11/22 05:12:45;;;;;;;5.00;2.40;;;;;;;0.66;100.00;101463.19;101913;1320;71601;-76
2021/11/22 05:16:00;;;;;;;4.70;2.20;;;;;;;0.63;100.00;101471.52;102325;1318;74083;-79
2021/11/22 05:19:30;;;;;;;4.70;2.00;;;;;;;0.61;100.00;101481.02;102467;1317;61285;-79
2021/11/22 05:22:47;;;;;;;;;;;;;;;;;;;;;
2021/11/22 05:26:15;;;;;;;3.80;1.90;;;;;;;0.46;100.00;101480.56;102247;1316;74313;-77
2021/11/22 05:29:43;;;;;;;7.40;2.90;;;;;;;0.41;100.00;101487.30;102345;1318;73277;-77
2021/11/22 05:33:10;;;;;;;4.10;2.10;;;;;;;0.36;100.00;101490.52;102176;1316;74012;-77
2021/11/22 05:36:29;;;;;;;3.80;2.00;;;;;;;0.29;100.00;101492.45;102411;1316;62627;-79
2021/11/22 05:39:46;;;;;;;4.50;2.20;;;;;;;0.24;100.00;101500.77;102311;1316;61368;-79
2021/11/22 05:43:11;;;;;;;;;;;;;;;;;;;;;
2021/11/22 05:45:47;;;;;;;4.50;2.20;;;;;;;0.14;100.00;101517.85;102471;1317;72486;-79
2021/11/22 05:48:51;;;;;;;5.50;1.80;;;;;;;0.11;100.00;101522.06;101919;1321;74189;-78
2021/11/22 05:52:23;;;;;;;6.00;1.90;;;;;;;0.09;100.00;101526.85;102567;1316;61231;-80
2021/11/22 05:55:06;;;;;;;4.00;2.00;;;;;;;0.08;100.00;101529.34;102041;1319;62273;-78
2021/11/22 05:58:10;;;;;;;;;;;;;;;;;;;;;
2021/11/22 06:01:07;;;;;;;6.30;2.90;;;;;;;0.11;100.00;101531.60;102535;1318;72855;-80
2021/11/22 06:04:36;;;;;;;3.50;2.10;;;;;;;0.12;100.00;101536.95;102588;1322;74813;-80
2021/11/22 06:07:44;;;;;;;4.70;2.70;;;;;;;0.12;100.00;101543.71;102618;1317;61731;-79
2021/11/22 06:10:54;;;;;;;3.10;1.60;;;;;;;0.12;100.00;101547.90;102436;1318;61790;-80
2021/11/22 06:14:16;;;;;;;5.00;2.00;;;;;;;0.06;100.00;101560.05;102626;1316;75891;-80
2021/11/22 06:17:49;;;;;;;4.60;1.60;;;;;;;-0.01;100.00;101559.42;102477;1317;71618;-80
2021/11/22 06:21:05;;;;;;;4.10;2.00;;;;;;;-0.04;100.00;101560.62;102471;1316;73557;-80
2021/11/22 06:24:04;;;;;;;;;;;;;;;;;;;;;
2021/11/22 06:26:41;;;;;;;4.90;2.40;;;;;;;-0.10;100.00;101563.21;100322;1317;3067065;-79
2021/11/22 06:29:51;;;;;;;;;;;;;;;;;;;;;
2021/11/22 06:33:19;;;;;;;4.90;1.60;;;;;;;-0.17;100.00;101581.32;102491;1317;72439;-80
2021/11/22 06:35:58;;;;;;;;;;;;;;;;;;;;;
2021/11/22 06:38:44;;;;;;;2.30;1.10;;;;;;;-0.26;100.00;101595.39;102679;1316;61436;-78
2021/11/22 06:41:54;;;;;;;1.90;1.20;;;;;;;-0.31;100.00;101607.45;102318;1315;61732;-79
2021/11/22 06:45:15;;;;;;;2.30;1.40;;;;;;;-0.34;100.00;101617.00;102691;1318;75384;-79
2021/11/22 06:48:20;;;;;;;5.70;2.10;;;;;;;-0.36;100.00;101621.80;102841;1317;72478;-80
2021/11/22 06:50:55;;;;;;;5.50;2.20;;;;;;;-0.36;100.00;101627.89;102936;1317;74227;-80
2021/11/22 06:53:35;;;;;;;5.10;2.50;;;;;;;-0.37;100.00;101634.52;102872;1318;61887;-79
2021/11/22 06:56:22;;;;;;;7.90;2.80;;;;;;;-0.35;100.00;101636.04;102201;1316;61421;-78
2021/11/22 06:59:37;;;;;;;;;;;;;;;;;;;;;
2021/11/22 07:02:23;;;;;;;;;;;;;;;;;;;;;
2021/11/22 07:05:51;;;;;;;;;;;;;;;;;;;;;
2021/11/22 07:09:21;;;;;;;3.00;1.60;;;;;;;-0.40;100.00;101663.88;102326;1317;61388;-78
2021/11/22 07:12:49;;;;;;;3.40;1.60;;;;;;;-0.45;100.00;101675.30;102433;1316;62514;-79
2021/11/22 07:16:19;;;;;;;6.90;1.80;;;;;;;-0.48;100.00;101679.24;102505;1316;75660;-79
2021/11/22 07:19:40;;;;;;;4.90;2.50;;;;;;;-0.48;100.00;101688.27;102902;1316;72461;-80
2021/11/22 07:23:03;;;;;;;;;;;;;;;;;;;;;
2021/11/22 07:26:22;;;;;;;;;;;;;;;;;;;;;
2021/11/22 07:29:23;;;;;;;;;;;;;;;;;;;;;
2021/11/22 07:32:13;;;;;;;3.10;1.70;;;;;;;-0.41;100.00;101702.15;102385;1318;75014;-79
2021/11/22 07:35:41;;;;;;;3.80;1.80;;;;;;;-0.37;100.00;101704.41;102458;1318;72641;-78
2021/11/22 07:38:58;;;;;;;;;;;;;;;;;;;;;
2021/11/22 07:41:50;;;;;;;7.10;2.90;;;;;;;-0.28;100.00;101711.61;102244;1317;61764;-78
2021/11/22 07:44:49;;;;;;;;;;;;;;;;;;;;;
2021/11/22 07:48:08;;;;;;;5.60;2.10;;;;;;;-0.20;100.00;101719.52;102419;1317;76110;-79
2021/11/22 07:51:15;;;;;;;3.40;1.60;;;;;;;-0.17;100.00;101736.08;102794;1317;72523;-80
2021/11/22 07:54:25;;;;;;;3.30;1.60;;;;;;;-0.16;100.00;101745.21;102929;1316;72957;-78
2021/11/22 07:57:52;;;;;;;2.40;1.20;;;;;;;-0.13;100.00;101745.24;102876;1316;62533;-79
2021/11/22 08:01:11;;;;;;;3.40;1.90;;;;;;;-0.08;100.00;101748.45;102601;1319;61235;-80
2021/11/22 08:04:40;;;;;;;3.90;2.00;;;;;;;-0.02;100.00;101748.30;102810;1318;74798;-79
2021/11/22 08:07:59;;;;;;;;;;;;;;;;;;;;;
2021/11/22 08:14:43;;;;;;;4.10;1.30;;;;;;;0.23;100.00;101754.80;102647;1317;61598;-79
2021/11/22 08:17:38;;;;;;;2.00;1.20;;;;;;;0.32;100.00;101766.20;102297;1317;61319;-80
2021/11/22 08:21:08;;;;;;;1.40;0.80;;;;;;;0.37;100.00;101769.00;102683;1317;75406;-79
2021/11/22 08:24:25;;;;;;;3.20;0.80;;;;;;;0.40;100.00;101780.02;103093;1317;72205;-80
2021/11/22 08:27:09;;;;;;;5.50;1.50;;;;;;;0.42;100.00;101780.11;102880;1317;73471;-80
2021/11/22 08:30:37;;;;;;;1.80;1.10;;;;;;;0.49;100.00;101782.70;103193;1322;62372;-82
2021/11/22 08:33:49;;;;;;;4.60;1.30;;;;;;;0.55;100.00;101781.46;102893;1318;61337;-79
2021/11/22 08:37:10;;;;;;;5.00;1.50;;;;;;;0.63;100.00;101786.08;103260;1316;75100;-79
2021/11/22 08:40:36;;;;;;;3.10;1.60;;;;;;;0.72;100.00;101793.76;102969;1317;72543;-79
2021/11/22 08:44:01;;;;;;;3.30;1.30;;;;;;;0.82;100.00;101800.54;103038;1316;74208;-79
2021/11/22 08:47:06;;;;;;;;;;;;;;;;;;;;;
2021/11/22 08:50:08;;;;;;;5.60;1.50;;;;;;;1.02;100.00;101808.83;103370;1315;61775;-80
2021/11/22 08:52:56;;;;;;;3.50;1.20;;;;;;;1.11;100.00;101811.66;103299;1319;75002;-78
2021/11/22 08:55:48;;;;;;;2.30;1.00;;;;;;;1.20;100.00;101812.90;102314;1318;71506;-78
2021/11/22 08:58:56;;;;;;;;;;;;;;;;;;;;;
2021/11/22 09:01:33;;;;;;;5.10;1.40;;;;;;;1.45;100.00;101823.48;102476;1320;62560;-79
2021/11/22 09:04:47;;;;;;;3.20;1.30;;;;;;;1.56;100.00;101824.77;102661;1318;61367;-78
2021/11/22 09:08:16;;;;;;;2.00;1.30;;;;;;;1.70;100.00;101824.01;102220;1318;73919;-77
2021/11/22 09:11:42;;;;;;;1.60;0.90;;;;;;;1.80;100.00;101831.07;102150;1319;70724;-79
2021/11/22 09:14:14;;;;;;;2.30;1.00;;;;;;;1.89;100.00;101829.14;102152;1323;72863;-79
2021/11/22 09:17:17;;;;;;;;;;;;;;;;;;;;;
2021/11/22 09:20:40;;;;;;;;;;;;;;;;;;;;;
2021/11/22 09:23:24;;;;;;;;;;;;;;;;;;;;;
2021/11/22 09:26:09;;;;;;;3.10;1.00;;;;;;;2.21;99.19;101850.59;102874;1317;70898;-78
2021/11/22 09:28:42;;;;;;;2.70;1.00;;;;;;;2.31;99.63;101855.45;102594;1318;73996;-77
2021/11/22 09:31:50;;;;;;;1.40;0.90;;;;;;;2.38;99.31;101859.17;102252;1317;61440;-77
2021/11/22 09:34:49;;;;;;;1.40;0.60;;;;;;;2.47;98.59;101865.48;102458;1317;61272;-78
2021/11/22 09:37:57;;;;;;;2.20;0.90;;;;;;;2.50;95.84;101865.11;102235;1317;76054;-77
2021/11/22 09:40:26;;;;;;;4.10;1.00;;;;;;;2.56;95.62;101868.58;102318;1315;73530;-78
2021/11/22 09:43:33;;;;;;;;;;;;;;;;;;;;;
2021/11/22 09:47:02;;;;;;;4.00;1.20;;;;;;;2.76;96.73;101872.92;102480;1319;62566;-79
2021/11/22 09:50:08;;;;;;;;;;;;;;;;;;;;;
2021/11/22 09:53:25;;;;;;;2.50;1.20;;;;;;;3.00;95.35;101878.58;102608;1315;75121;-79
2021/11/22 09:56:24;;;;;;;3.60;1.20;;;;;;;3.10;93.74;101883.25;102310;1318;72370;-79
2021/11/22 09:59:32;;;;;;;4.40;1.50;;;;;;;3.23;93.84;101885.92;102470;1318;73032;-81
2021/11/22 10:03:01;;;;;;;3.30;1.10;;;;;;;3.43;93.88;101888.13;102428;1318;62693;-76
2021/11/22 10:06:13;;;;;;;3.80;1.00;;;;;;;3.69;92.75;101879.91;102302;1319;62043;-78
2021/11/22 10:09:40;;;;;;;1.40;0.80;;;;;;;3.88;90.23;101880.61;102246;1318;74981;-78
2021/11/22 10:13:09;;;;;;;1.10;0.60;;;;;;;4.01;89.79;101881.16;102544;1318;70911;-81
2021/11/22 10:16:34;;;;;;;;;;;;;;;;;;;;;
2021/11/22 10:20:02;;;;;;;4.60;1.10;;;;;;;4.27;88.86;101884.64;102023;1317;61465;-77
2021/11/22 10:23:17;;;;;;;;;;;;;;;;;;;;;
2021/11/22 10:26:24;;;;;;;2.80;1.20;;;;;;;4.39;88.56;101887.84;102416;1315;75682;-77
2021/11/22 10:29:35;;;;;;;3.50;0.90;;;;;;;4.49;89.25;101892.27;102416;1317;71424;-79
2021/11/22 10:32:47;;;;;;;2.40;0.80;;;;;;;4.61;88.88;101892.85;102451;1318;72870;-77
2021/11/22 10:35:38;;;;;;;;;;;;;;;;;;;;;
2021/11/22 10:38:12;;;;;;;1.20;0.50;;;;;;;4.75;86.46;101900.44;102624;1318;61190;-79
2021/11/22 10:41:11;;;;;;;;;;;;;;;;;;;;;
2021/11/22 10:44:10;;;;;;;1.30;0.90;;;;;;;4.84;83.88;101896.27;102373;1316;71544;-78
2021/11/22 10:47:27;;;;;;;1.40;0.90;;;;;;;4.84;83.79;101894.02;102397;1317;72913;-80
2021/11/22 10:49:56;;;;;;;1.90;0.80;;;;;;;4.86;84.64;101893.69;102602;1316;60389;-79
2021/11/22 10:52:35;;;;;;;4.10;0.80;;;;;;;4.93;84.78;101893.24;102339;1319;61332;-78
2021/11/22 10:55:27;;;;;;;1.60;0.70;;;;;;;4.96;83.76;101891.73;102373;1316;75890;-78
2021/11/22 10:58:35;;;;;;;2.30;0.90;;;;;;;4.99;83.48;101896.14;102212;1318;71582;-81
2021/11/22 11:01:47;;;;;;;3.40;0.80;;;;;;;5.07;83.12;101896.09;102650;1318;72973;-80
2021/11/22 11:04:34;;;;;;;2.10;0.50;;;;;;;5.31;83.10;101897.88;102329;1318;61322;-77
2021/11/22 11:07:06;;;;;;;3.00;0.50;;;;;;;5.42;83.21;101897.64;102389;1319;61357;-78
2021/11/22 11:10:18;;;;;;;1.60;0.40;;;;;;;5.50;81.53;101898.95;102632;1314;75311;-78
2021/11/22 11:12:50;;;;;;;1.70;0.80;;;;;;;5.82;81.50;101896.29;102402;1322;71931;-80
2021/11/22 11:15:18;;;;;;;0.80;0.40;;;;;;;6.21;79.94;101892.46;102554;1318;73711;-80
2021/11/22 11:17:50;;;;;;;2.10;0.70;;;;;;;6.62;78.51;101896.90;102427;1317;61308;-79
2021/11/22 11:20:29;;;;;;;2.70;0.50;;;;;;;7.04;77.35;101889.48;102545;1317;61213;-80
2021/11/22 11:23:20;;;;;;;0.70;0.30;;;;;;;7.48;76.80;101883.83;102530;1318;76219;-79
2021/11/22 11:25:48;;;;;;;1.70;0.40;;;;;;;7.91;73.88;101883.13;102771;1316;71546;-77
2021/11/22 11:28:24;;;;;;;2.50;0.70;;;;;;;8.08;69.11;101885.42;102257;1318;74090;-77
2021/11/22 11:30:56;;;;;;;1.90;0.70;;;;;;;8.34;70.43;101889.58;102313;1319;61289;-78
2021/11/22 11:33:29;;;;;;;1.50;0.40;;;;;;;8.69;69.55;101894.36;102752;1315;61654;-77
2021/11/22 11:36:04;;;;;;;2.30;0.50;;;;;;;8.99;67.48;101899.27;102479;1318;74697;-78
2021/11/22 11:39:17;;;;;;;1.30;0.70;;;;;;;9.25;67.21;101896.89;102489;1317;72933;-78
2021/11/22 11:42:33;;;;;;;1.90;0.40;;;;;;;9.65;66.64;101893.80;102198;1318;73973;-81
2021/11/22 11:45:22;;;;;;;0.70;0.40;;;;;;;10.16;62.74;101890.13;102386;1318;61411;-80
2021/11/22 11:48:55;;;;;;;1.60;0.40;;;;;;;10.52;62.49;101889.64;102576;1315;61351;-81
2021/11/22 11:51:39;;;;;;;;;;;;;;;;;;;;;
2021/11/22 11:54:39;;;;;;;;;;;;;;;;;;;;;
2021/11/22 11:57:06;;;;;;;2.40;0.60;;;;;;;11.70;55.79;101884.42;102934;1318;72894;-80
2021/11/22 11:59:42;;;;;;;2.30;0.40;;;;;;;12.00;54.94;101880.40;102460;1316;61776;-79
2021/11/22 12:02:47;;;;;;;1.40;0.40;;;;;;;12.38;53.86;101881.09;102564;1316;61314;-79
2021/11/22 12:05:17;;;;;;;1.00;0.30;;;;;;;12.78;52.31;101883.06;102420;1318;77075;-79
2021/11/22 12:08:46;;;;;;;2.00;0.50;;;;;;;13.05;51.37;101882.85;102781;1315;71395;-79
2021/11/22 12:11:34;;;;;;;0.70;0.20;;;;;;;13.49;51.16;101883.52;102799;1315;73078;-79
2021/11/22 12:14:04;;;;;;;1.30;0.40;;;;;;;13.85;49.40;101888.59;102439;1316;61327;-80
2021/11/22 12:17:14;;;;;;;1.70;0.50;;;;;;;14.12;48.64;101891.66;102579;1309;62700;-80
2021/11/22 12:19:43;;;;;;;3.30;0.90;;;;;;;14.56;48.05;101889.87;102728;1318;74993;-78
2021/11/22 12:22:16;;;;;;;1.40;0.50;;;;;;;14.83;45.44;101894.16;102400;1316;72651;-79
2021/11/22 12:24:48;;;;;;;1.10;0.40;;;;;;;15.18;45.15;101900.71;102442;1318;74400;-80
2021/11/22 12:27:30;;;;;;;1.50;0.60;;;;;;;15.73;44.26;101900.04;102403;1320;61247;-79
2021/11/22 12:30:03;;;;;;;1.90;0.60;;;;;;;16.14;42.18;101898.23;102492;1318;59444;-75
2021/11/22 12:32:36;;;;;;;2.30;0.50;;;;;;;16.66;42.91;101896.98;102552;1317;74951;-81
2021/11/22 12:35:35;;;;;;;1.50;0.40;;;;;;;17.08;40.15;101900.66;102438;1318;71297;-80
2021/11/22 12:38:42;;;;;;;;;;;;;;;;;;;;;
2021/11/22 12:41:38;;;;;;;3.60;0.60;;;;;;;17.84;38.32;101902.52;102417;1318;62512;-82
2021/11/22 12:44:44;;;;;;;;;;;;;;;;;;;;;
2021/11/22 12:47:11;;;;;;;1.80;0.60;;;;;;;18.15;36.68;101905.34;102842;1319;75940;-80
2021/11/22 12:49:44;;;;;;;2.80;0.80;;;;;;;18.14;36.13;101905.91;102723;1317;71615;-78
2021/11/22 12:53:03;;;;;;;3.40;0.70;;;;;;;18.28;36.67;101903.08;102545;1316;74111;-79
2021/11/22 12:55:36;;;;;;;4.40;0.80;;;;;;;18.62;35.72;101902.44;102730;1318;61415;-80
2021/11/22 12:58:17;;;;;;;1.40;0.50;;;;;;;18.76;34.63;101898.89;102812;1316;62336;-82
2021/11/22 13:00:47;;;;;;;2.00;0.40;;;;;;;18.91;34.57;101896.79;103013;1318;75966;-77
2021/11/22 13:04:10;;;;;;;3.40;0.80;;;;;;;19.13;35.10;101898.30;102497;1316;72173;-78
2021/11/22 13:06:47;;;;;;;3.40;0.90;;;;;;;19.36;33.67;101900.40;102525;1318;72727;-79
2021/11/22 13:09:38;;;;;;;1.30;0.50;;;;;;;19.18;33.02;101896.76;102707;1315;61439;-82
2021/11/22 13:12:38;;;;;;;4.20;0.70;;;;;;;18.55;33.57;101895.48;103204;1316;61317;-77
2021/11/22 13:15:21;;;;;;;1.80;0.50;;;;;;;17.76;34.30;101895.79;103087;1315;76004;-80
2021/11/22 13:17:50;;;;;;;1.50;0.50;;;;;;;17.23;35.00;101896.70;103066;1316;72559;-80
2021/11/22 13:20:17;;;;;;;1.40;0.40;;;;;;;16.81;36.25;101896.52;102982;1317;73145;-80
2021/11/22 13:22:51;;;;;;;1.90;0.40;;;;;;;16.67;36.56;101904.02;102985;1316;60601;-78
2021/11/22 13:25:20;;;;;;;2.50;0.60;;;;;;;16.52;36.56;101900.02;102722;1317;61445;-78
2021/11/22 13:28:29;;;;;;;1.20;0.50;;;;;;;16.57;36.13;101909.30;102423;1315;76008;-78
2021/11/22 13:31:10;;;;;;;2.20;0.70;;;;;;;16.89;36.32;101903.73;101964;1327;71679;-80
2021/11/22 13:33:37;;;;;;;;;;;;;;;17.33;35.82;101906.39;101835;1325;73913;-79
2021/11/22 13:36:08;;;;;;;2.70;0.60;;;;;;;17.54;34.82;101910.08;102420;1322;61505;-81
2021/11/22 13:38:41;;;;;;;1.80;0.50;;;;;;;17.60;34.91;101909.71;102880;1317;61635;-78
2021/11/22 13:42:08;;;;;;;2.20;0.50;;;;;;;17.87;34.41;101912.31;102320;1317;76688;-83
2021/11/22 13:44:42;;;;;;;1.50;0.30;;;;;;;17.99;33.97;101909.71;102811;1317;72558;-78
2021/11/22 13:47:42;;;;;;;3.10;0.60;;;;;;;17.82;33.38;101912.79;102592;1316;73971;-80
2021/11/22 13:50:09;;;;;;;3.00;0.40;;;;;;;17.74;33.64;101917.98;102835;1318;61396;-79
2021/11/22 13:52:36;;;;;;;0.90;0.40;;;;;;;17.63;34.90;101924.03;102736;1318;61665;-80
2021/11/22 13:55:23;;;;;;;1.90;0.50;;;;;;;17.22;35.13;101927.60;102566;1318;75490;-80
2021/11/22 13:58:19;;;;;;;2.40;0.60;;;;;;;16.85;36.78;101931.55;102553;1320;71405;-83
2021/11/22 14:00:57;;;;;;;1.40;0.40;;;;;;;16.70;37.46;101932.08;102462;1317;74195;-77
2021/11/22 14:03:29;;;;;;;1.90;0.40;;;;;;;16.33;36.88;101933.93;102747;1318;61420;-80
2021/11/22 14:07:03;;;;;;;2.10;0.60;;;;;;;16.10;37.45;101934.72;102683;1318;61696;-81
2021/11/22 14:09:28;;;;;;;2.60;0.50;;;;;;;15.95;37.38;101928.66;102472;1318;75037;-79
2021/11/22 14:12:05;;;;;;;4.40;0.40;;;;;;;15.96;37.10;101935.05;102484;1319;72378;-78
2021/11/22 14:14:44;;;;;;;1.90;0.80;;;;;;;16.05;36.66;101938.22;102587;1317;73256;-75
2021/11/22 14:17:20;;;;;;;1.30;0.30;;;;;;;16.38;36.46;101936.64;102575;1318;61645;-78
2021/11/22 14:20:10;;;;;;;2.60;0.60;;;;;;;16.77;35.79;101934.69;103130;1318;61293;-80
2021/11/22 14:22:41;;;;;;;2.00;0.40;;;;;;;17.11;35.35;101932.16;102689;1314;75677;-79
2021/11/22 14:25:19;;;;;;;0.90;0.30;;;;;;;17.32;35.53;101933.15;102104;1315;349545;-78
2021/11/22 14:27:47;;;;;;;1.50;0.60;;;;;;;17.44;35.05;101933.99;102471;1319;73946;-79
2021/11/22 14:30:16;;;;;;;1.40;0.50;;;;;;;17.45;35.62;101934.91;102509;1318;61343;-79
2021/11/22 14:33:57;;;;;;;1.30;0.50;;;;;;;17.28;34.67;101935.93;102498;1316;61913;-80
2021/11/22 14:36:24;;;;;;;1.50;0.40;;;;;;;16.98;35.94;101932.96;102152;1318;73448;-79
2021/11/22 14:38:58;;;;;;;1.60;0.50;;;;;;;16.84;35.90;101935.58;102286;1318;72309;-77
2021/11/22 14:41:35;;;;;;;1.50;0.40;;;;;;;16.58;36.02;101938.67;102412;1318;73935;-80
2021/11/22 14:44:11;;;;;;;3.10;0.50;;;;;;;16.28;36.62;101944.98;102548;1319;61306;-79
2021/11/22 14:46:45;;;;;;;1.90;0.40;;;;;;;15.97;36.86;101952.30;102524;1318;61379;-79
2021/11/22 14:49:36;;;;;;;0.90;0.50;;;;;;;15.48;37.70;101955.30;102378;1316;73081;-79
2021/11/22 14:52:03;;;;;;;1.60;0.60;;;;;;;15.17;38.49;101953.90;102455;1317;72582;-76
2021/11/22 14:54:34;;;;;;;1.90;0.70;;;;;;;14.86;38.77;101952.55;102458;1317;73918;-80
2021/11/22 14:57:03;;;;;;;3.70;0.90;;;;;;;14.55;39.59;101951.19;102555;1315;61988;-79
2021/11/22 15:00:11;;;;;;;;;;;;;;;;;;;;;
2021/11/22 15:03:17;;;;;;;2.60;0.90;;;;;;;13.64;41.79;101955.39;102171;1318;74931;-78
2021/11/22 15:05:47;;;;;;;2.80;0.70;;;;;;;13.00;42.55;101958.19;102529;1316;71392;-79
2021/11/22 15:08:24;;;;;;;5.50;1.00;;;;;;;12.00;44.13;101967.94;102341;1316;74033;-78
2021/11/22 15:10:53;;;;;;;2.50;0.80;;;;;;;10.85;46.49;101964.36;102451;1319;61324;-77
2021/11/22 15:13:43;;;;;;;5.40;1.10;;;;;;;9.91;48.40;101967.79;102266;1316;61638;-78
2021/11/22 15:16:09;;;;;;;4.60;1.00;;;;;;;9.00;51.23;101977.01;102430;1315;74871;-78
2021/11/22 15:18:51;;;;;;;3.70;1.10;;;;;;;8.20;54.65;101978.13;102314;1316;70657;-78
2021/11/22 15:21:38;;;;;;;7.00;1.20;;;;;;;7.63;56.16;101979.64;102327;1317;73094;-79
2021/11/22 15:24:09;;;;;;;1.50;0.70;;;;;;;7.05;58.32;101978.44;102161;1316;61261;-77
2021/11/22 15:26:40;;;;;;;2.40;0.70;;;;;;;6.61;60.30;101976.58;102199;1316;62980;-79
2021/11/22 15:29:15;;;;;;;7.90;1.00;;;;;;;6.22;61.75;101977.73;102301;1317;75118;-77
2021/11/22 15:31:53;;;;;;;1.80;0.60;;;;;;;5.88;62.62;101971.10;102293;1318;71404;-79
2021/11/22 15:34:23;;;;;;;5.20;0.90;;;;;;;5.57;64.07;101972.30;102700;1318;73869;-78
2021/11/22 15:37:00;;;;;;;2.40;0.90;;;;;;;5.31;65.61;101978.00;102249;1318;61429;-77